Pago Pago, AS

3:04 AM SST on October 22, 2014 (GMT -1100)
Kona International At Keahole | Change Station
CLOSE
Current Station
Airport
Location: Keahole Point,
Elevation: 43 ft
Nearby Weather Stations

Elev 43 ft 19.74 °N, 156.05 °W | Updated 11 minutes ago

Overcast
Overcast
79 °F
Feels Like 79 °F
N
0
Wind Variable Wind from North

Today
High -- | Low -- °F
--% Chance of Precip.
Yesterday
High -- | Low -- °F
Precip. -- in
5:52 AM 6:22 PM
Waning Crescent, 2% visible
Pressure 29.96 in
Visibility 10.0 miles
Clouds Scattered Clouds 2000 ft
Mostly Cloudy 2500 ft
Overcast 6000 ft
Dew Point 72 °F
Humidity 79%
Rainfall 0.00 in
Snow Depth Not available.
UV 0 out of 12
Pollen Not available.
Air Quality Not available.
Flu Activity
METAR PHKO 221353Z AUTO 00000KT 10SM SCT020 BKN025 OVC060 26/22 A2995 RMK AO2 SLP144 T02610222 TSNO

More Conditions Fewer Conditions

Pressure 29.96 in
Visibility 10.0 miles
Clouds Scattered Clouds 2000 ft
Mostly Cloudy 2500 ft
Overcast 6000 ft
Dew Point 72 °F
Humidity 79%
Rainfall 0.00 in
Snow Depth Not available.
UV 0 out of 12
Pollen Not available.
Air Quality Not available.
Flu Activity
METAR PHKO 221353Z AUTO 00000KT 10SM SCT020 BKN025 OVC060 26/22 A2995 RMK AO2 SLP144 T02610222 TSNO

More Conditions Fewer Conditions

10-Day Weather Forecast

Almanac

Astronomy

Oct. 22, 2014 Rise Set
Actual Time 5:52 AM SST 6:22 PM SST
Civil Twilight 5:30 AM SST 6:44 PM SST
Nautical Twilight 5:04 AM SST 7:09 PM SST
Astronomical Twilight 4:39 AM SST 7:35 PM SST
Moon 5:06 AM SST 5:44 PM SST
Length of Visible Light 13h 13m
Length of Day
12h 30m
Tomorrow will be 0m 45s longer.
Waning Crescent, 2% of the Moon is Illuminated
Today
Waning Crescent
Oct 23
New
Oct 30
First Quarter
Nov 6
Full
Nov 14
Last Quarter

Community

WunderPhotos

Upload Photos

1,763,923 photos uploaded!

WunderBlogs® & News

Nearby

Snow Depth

Station Depth Elevation
No new snow has been reported.

Earthquake Activity

City Distance Mag. Time & Date
No recent earthquake activity has been reported nearby.
Minimum magnitude displayed is 2.5.

Coastal Water Temperatures

Place Temperature
No Stations Reporting

Nearby Weather Stations